Ardmore, North Carolina
Current Conditions -  °F | °C
As of 2:54 AM on Sunday 26 Oct 2014 (Local Time) from KINT Reporting Station
Clear Clear  
Wind Chill: 59°   Ceiling: Unl
Heat Index: 59°   Visibility: 10mi
Dew Point: 47°   Wind: 9mph
Humidity: 64%   Direction: 300°WNW
Pressure: 29.89"   Gusts: NA
Location:  36.0595°N, 80.3192°W
Report Text: KINT 260654Z AUTO 30008KT 10SM CLR 15/08 A2989 RMK AO2 SLP112 T01500083
Loading
Personal Weather Stations






























Interactive Weather Map New forecast layout! Learn more

10-Day Weather Forecast

Advertisements
Track Severe Weather on mobile